Festus Memorial Airport


Codes: KFES/
Name: Festus Memorial Airport
City: Festus
Country: United States
Elevation: 433 ft.

Photos at Festus Memorial Airport


   Photos courtesy of SpottingLog. You can add your own sightings and photos by signing up for a free trial today.



No photos found.

Weather at Festus Memorial Airport


Time (UTC)DescriptionTempratureWindCloud coverageVisibilityPressureHumidity
19-Apr-2024 03:00Moderate Rain15°C13 mph, NW100%10000m1016hPa98%
19-Apr-2024 06:00Light Rain14°C13 mph, NW100%10000m1017hPa96%
19-Apr-2024 09:00Overcast Clouds11°C11 mph, NW93%10000m1019hPa90%
19-Apr-2024 12:00Scattered Clouds8°C9 mph, N49%10000m1022hPa87%
19-Apr-2024 15:00Broken Clouds12°C11 mph, N65%10000m1023hPa44%
19-Apr-2024 18:00Scattered Clouds16°C11 mph, N42%10000m1023hPa32%
19-Apr-2024 21:00Scattered Clouds17°C11 mph, N48%10000m1022hPa32%
20-Apr-2024 00:00Broken Clouds13°C7 mph, N69%10000m1022hPa50%
20-Apr-2024 03:00Few Clouds9°C2 mph, NW23%10000m1025hPa55%
20-Apr-2024 06:00Few Clouds7°C4 mph, NW20%10000m1026hPa61%
20-Apr-2024 09:00Few Clouds6°C4 mph, NW16%10000m1026hPa71%
20-Apr-2024 12:00Few Clouds6°C4 mph, W12%10000m1028hPa69%
20-Apr-2024 15:00Scattered Clouds12°C11 mph, NW28%10000m1027hPa38%
20-Apr-2024 18:00Scattered Clouds15°C11 mph, NW31%10000m1026hPa33%
20-Apr-2024 21:00Overcast Clouds15°C11 mph, NW100%10000m1024hPa35%
21-Apr-2024 00:00Overcast Clouds12°C7 mph, NW100%10000m1025hPa52%
21-Apr-2024 03:00Broken Clouds7°C4 mph, NW76%10000m1026hPa63%
21-Apr-2024 06:00Overcast Clouds7°C4 mph, NW88%10000m1026hPa67%
21-Apr-2024 09:00Overcast Clouds5°C4 mph, NW100%10000m1025hPa73%
21-Apr-2024 12:00Overcast Clouds5°C2 mph, NW100%10000m1026hPa74%
21-Apr-2024 15:00Scattered Clouds12°C4 mph, NW26%10000m1025hPa46%
21-Apr-2024 18:00Few Clouds15°C7 mph, NW15%10000m1023hPa36%
21-Apr-2024 21:00Clear Sky16°C7 mph, NW9%10000m1020hPa35%
22-Apr-2024 00:00Scattered Clouds13°C4 mph, NW41%10000m1020hPa56%
22-Apr-2024 03:00Broken Clouds9°C2 mph, NW65%10000m1021hPa59%
22-Apr-2024 06:00Broken Clouds9°C2 mph, NW69%10000m1021hPa60%
22-Apr-2024 09:00Scattered Clouds6°C2 mph, SW33%10000m1020hPa72%
22-Apr-2024 12:00Few Clouds6°C2 mph, S19%10000m1020hPa76%
22-Apr-2024 15:00Clear Sky15°C4 mph, S2%10000m1019hPa42%
22-Apr-2024 18:00Clear Sky19°C7 mph, S7%10000m1017hPa34%
22-Apr-2024 21:00Scattered Clouds20°C9 mph, S30%10000m1014hPa34%
23-Apr-2024 00:00Broken Clouds16°C7 mph, S56%10000m1013hPa55%
23-Apr-2024 03:00Few Clouds12°C9 mph, S24%10000m1014hPa72%
23-Apr-2024 06:00Broken Clouds13°C11 mph, S52%10000m1013hPa73%
23-Apr-2024 09:00Overcast Clouds13°C13 mph, SW100%10000m1012hPa79%
23-Apr-2024 12:00Light Rain13°C11 mph, SW99%10000m1012hPa81%
23-Apr-2024 15:00Light Rain13°C9 mph, SW100%9799m1012hPa93%
23-Apr-2024 18:00Light Rain14°C11 mph, W100%10000m1013hPa94%
23-Apr-2024 21:00Light Rain19°C9 mph, SW100%10000m1012hPa73%
24-Apr-2024 00:00Light Rain17°C11 mph, NW78%10000m1014hPa54%